createdAt,value
2024-01-04T00:02:03.290Z,6.66
2024-01-04T00:06:50.578Z,6.70
2024-01-04T00:11:40.831Z,6.95
2024-01-04T00:16:28.400Z,7.13
2024-01-04T00:21:15.871Z,7.34
2024-01-04T00:26:03.486Z,7.22
2024-01-04T00:30:56.464Z,6.79
2024-01-04T00:35:43.765Z,6.89
2024-01-04T00:40:31.891Z,7.37
2024-01-04T00:45:20.626Z,7.45
2024-01-04T00:50:11.588Z,7.72
2024-01-04T00:54:59.082Z,8.01
2024-01-04T00:59:46.370Z,7.37
2024-01-04T01:04:33.992Z,7.47
2024-01-04T01:09:24.898Z,7.42
2024-01-04T01:14:12.398Z,7.93
2024-01-04T01:18:59.973Z,8.05
2024-01-04T01:23:50.188Z,7.39
2024-01-04T01:28:42.156Z,7.84
2024-01-04T01:33:29.640Z,7.68
2024-01-04T01:38:17.073Z,7.70
2024-01-04T01:43:04.819Z,8.04
2024-01-04T01:47:56.472Z,7.65
2024-01-04T01:52:45.236Z,7.42
2024-01-04T01:57:33.124Z,7.75
2024-01-04T02:02:20.815Z,8.06
2024-01-04T02:07:11.249Z,7.45
2024-01-04T02:12:06.247Z,7.96
2024-01-04T02:16:53.654Z,7.72
2024-01-04T02:21:41.273Z,8.07
2024-01-04T02:26:32.700Z,8.10
2024-01-04T02:31:19.976Z,7.11
2024-01-04T02:36:07.959Z,8.04
2024-01-04T02:40:57.873Z,8.22
2024-01-04T02:45:47.787Z,7.78
2024-01-04T02:50:35.249Z,7.87
2024-01-04T02:55:22.586Z,8.23
2024-01-04T03:00:11.422Z,7.92
2024-01-04T03:05:01.581Z,7.57
2024-01-04T03:09:49.292Z,7.19
2024-01-04T03:14:36.652Z,8.02
2024-01-04T03:19:24.259Z,8.17
2024-01-04T03:24:14.344Z,8.17
2024-01-04T03:29:01.838Z,7.56
2024-01-04T03:33:49.386Z,7.57
2024-01-04T03:38:36.764Z,7.78
2024-01-04T03:43:26.863Z,8.09
2024-01-04T03:48:14.398Z,7.35
2024-01-04T03:53:01.798Z,7.81
2024-01-04T03:57:49.140Z,7.57
2024-01-04T04:02:39.476Z,7.95
2024-01-04T04:07:32.781Z,7.48
2024-01-04T04:12:20.349Z,7.67
2024-01-04T04:17:07.649Z,8.06
2024-01-04T04:21:57.659Z,7.52
2024-01-04T04:26:45.236Z,7.13
2024-01-04T04:31:32.690Z,7.83
2024-01-04T04:36:20.420Z,6.78
2024-01-04T04:41:10.832Z,6.89
2024-01-04T04:45:58.686Z,7.64
2024-01-04T04:50:46.022Z,7.25
2024-01-04T04:55:35.240Z,7.41
2024-01-04T05:00:25.418Z,7.07
2024-01-04T05:05:15.488Z,7.55
2024-01-04T05:10:02.906Z,7.52
2024-01-04T05:14:50.281Z,7.59
2024-01-04T05:19:40.602Z,7.65
2024-01-04T05:24:38.092Z,7.65
2024-01-04T05:29:25.575Z,6.80
2024-01-04T05:34:17.046Z,7.58
2024-01-04T05:39:07.835Z,7.00
2024-01-04T05:43:55.268Z,7.01
2024-01-04T05:48:43.019Z,6.53
2024-01-04T05:53:30.472Z,6.93
2024-01-04T05:58:20.320Z,7.38
2024-01-04T06:03:07.659Z,7.84
2024-01-04T06:07:55.017Z,7.45
2024-01-04T06:12:43.593Z,7.34
2024-01-04T06:17:33.497Z,7.88
2024-01-04T06:22:20.795Z,7.07
2024-01-04T06:27:08.306Z,7.16
2024-01-04T06:31:55.738Z,7.12
2024-01-04T06:36:45.729Z,7.11
2024-01-04T06:41:33.430Z,7.63
2024-01-04T06:46:21.081Z,7.51
2024-01-04T06:51:08.468Z,7.56
2024-01-04T06:55:59.915Z,7.15
2024-01-04T07:00:47.640Z,7.46
2024-01-04T07:05:35.500Z,7.39
2024-01-04T07:10:23.189Z,7.63
2024-01-04T07:15:13.717Z,7.46
2024-01-04T07:20:00.955Z,7.60
2024-01-04T07:24:50.637Z,7.61
2024-01-04T07:29:39.339Z,6.65
2024-01-04T07:34:29.487Z,6.87
2024-01-04T07:39:17.162Z,6.99
2024-01-04T07:44:04.750Z,7.34
2024-01-04T07:48:52.328Z,6.59
2024-01-04T07:53:42.399Z,6.53
2024-01-04T07:58:29.699Z,6.88
2024-01-04T08:03:17.441Z,6.40
2024-01-04T08:08:08.179Z,6.81
2024-01-04T08:12:58.204Z,7.50
2024-01-04T08:17:45.681Z,6.81
2024-01-04T08:22:33.629Z,7.12
2024-01-04T08:27:21.219Z,7.41
2024-01-04T08:32:11.070Z,7.27
2024-01-04T08:36:59.139Z,7.31
2024-01-04T08:41:46.326Z,7.56
2024-01-04T08:46:33.541Z,7.60
2024-01-04T08:51:23.363Z,7.62
2024-01-04T08:56:10.943Z,7.56
2024-01-04T09:00:58.386Z,7.58
2024-01-04T09:05:45.982Z,7.33
2024-01-04T09:10:36.037Z,7.61
2024-01-04T09:15:23.543Z,7.12
2024-01-04T09:20:11.686Z,7.50
2024-01-04T09:24:59.338Z,7.65
2024-01-04T09:29:49.279Z,7.39
2024-01-04T09:34:36.449Z,7.57
2024-01-04T09:39:24.139Z,7.82
2024-01-04T09:44:12.468Z,7.43
2024-01-04T09:49:04.983Z,6.97
2024-01-04T09:53:53.722Z,8.05
2024-01-04T09:58:41.218Z,7.73
2024-01-04T10:03:29.168Z,7.94
2024-01-04T10:08:52.457Z,8.25
2024-01-04T10:13:43.765Z,7.53
2024-01-04T10:18:31.643Z,8.26
2024-01-04T10:23:19.077Z,8.23
2024-01-04T10:28:12.704Z,7.63
2024-01-04T10:33:01.332Z,8.13
2024-01-04T10:37:57.406Z,8.39
2024-01-04T10:42:52.644Z,8.55
2024-01-04T10:47:49.078Z,8.73
2024-01-04T10:52:43.409Z,8.98
2024-01-04T10:57:32.473Z,9.03
2024-01-04T11:02:34.268Z,9.06
2024-01-04T11:07:30.487Z,8.46
2024-01-04T11:12:21.380Z,8.63
2024-01-04T11:17:36.198Z,8.71
2024-01-04T11:22:53.724Z,8.69
2024-01-04T11:27:48.374Z,8.47
2024-01-04T11:32:36.471Z,8.64
2024-01-04T11:37:24.586Z,8.34
2024-01-04T11:42:51.614Z,8.75
2024-01-04T11:47:41.053Z,8.64
2024-01-04T11:52:28.598Z,8.20
2024-01-04T11:57:22.533Z,7.80
2024-01-04T12:02:18.440Z,7.66
2024-01-04T12:07:07.024Z,7.39
2024-01-04T12:11:59.187Z,8.00
2024-01-04T12:16:53.765Z,8.04
2024-01-04T12:22:00.536Z,6.72
2024-01-04T12:26:52.464Z,8.01
2024-01-04T12:31:48.786Z,7.35
2024-01-04T12:36:38.071Z,8.13
2024-01-04T12:41:30.383Z,7.81
2024-01-04T12:46:20.657Z,7.85
2024-01-04T12:51:08.658Z,8.19
2024-01-04T12:55:56.556Z,8.21
2024-01-04T13:00:49.319Z,7.66
2024-01-04T13:05:38.036Z,7.80
2024-01-04T13:10:27.253Z,7.62
2024-01-04T13:15:14.851Z,8.35
2024-01-04T13:20:06.072Z,8.40
2024-01-04T13:24:53.450Z,8.82
2024-01-04T13:29:40.901Z,8.66
2024-01-04T13:34:37.741Z,8.45
2024-01-04T13:39:28.808Z,8.71
2024-01-04T13:44:16.398Z,8.55
2024-01-04T13:49:03.906Z,8.51
2024-01-04T13:53:51.180Z,8.48
2024-01-04T13:58:41.073Z,8.88
2024-01-04T14:03:37.497Z,8.77
2024-01-04T14:08:26.810Z,8.80
2024-01-04T14:13:15.256Z,8.48
2024-01-04T14:18:05.656Z,7.92
2024-01-04T14:22:53.267Z,8.73
2024-01-04T14:27:40.571Z,8.75
2024-01-04T14:32:28.843Z,7.97
2024-01-04T14:37:18.801Z,8.20
2024-01-04T14:42:07.039Z,8.68
2024-01-04T14:46:54.623Z,8.47
2024-01-04T14:51:41.854Z,7.76
2024-01-04T14:56:31.725Z,7.79
2024-01-04T15:01:22.276Z,8.50
2024-01-04T15:06:11.755Z,8.45
2024-01-04T15:11:00.260Z,7.92
2024-01-04T15:15:50.249Z,8.34
2024-01-04T15:20:38.586Z,8.25
2024-01-04T15:25:26.034Z,8.35
2024-01-04T15:30:18.055Z,8.10
2024-01-04T15:35:09.158Z,7.36
2024-01-04T15:39:56.449Z,7.88
2024-01-04T15:44:43.702Z,7.96
2024-01-04T15:49:31.105Z,7.82
2024-01-04T15:54:21.122Z,7.59
2024-01-04T15:59:08.455Z,7.73
2024-01-04T16:03:56.019Z,7.69
2024-01-04T16:08:43.514Z,7.76
2024-01-04T16:13:33.397Z,7.11
2024-01-04T16:18:20.856Z,7.67
2024-01-04T16:23:08.245Z,7.36
2024-01-04T16:27:55.738Z,7.27
2024-01-04T16:32:46.099Z,7.30
2024-01-04T16:37:33.344Z,7.29
2024-01-04T16:42:20.832Z,7.41
2024-01-04T16:47:08.156Z,7.23
2024-01-04T16:51:58.101Z,7.00
2024-01-04T16:56:45.521Z,7.24
2024-01-04T17:01:33.094Z,6.64
2024-01-04T17:06:20.571Z,6.97
2024-01-04T17:11:11.293Z,6.84
2024-01-04T17:15:58.472Z,7.19
2024-01-04T17:20:45.692Z,7.17
2024-01-04T17:25:33.042Z,7.10
2024-01-04T17:30:23.233Z,6.80
2024-01-04T17:35:10.905Z,7.18
2024-01-04T17:40:00.567Z,7.16
2024-01-04T17:44:48.003Z,6.57
2024-01-04T17:49:38.009Z,7.10
2024-01-04T17:54:25.466Z,6.97
2024-01-04T17:59:16.325Z,6.82
2024-01-04T18:04:03.766Z,6.34
2024-01-04T18:08:54.729Z,7.01
2024-01-04T18:13:42.370Z,7.02
2024-01-04T18:18:29.901Z,6.33
2024-01-04T18:23:17.388Z,7.25
2024-01-04T18:28:08.894Z,7.25
2024-01-04T18:32:56.386Z,6.62
2024-01-04T18:37:43.753Z,6.51
2024-01-04T18:42:31.093Z,6.07
2024-01-04T18:47:22.192Z,6.78
2024-01-04T18:52:09.529Z,6.52
2024-01-04T18:56:58.971Z,7.30
2024-01-04T19:01:46.363Z,6.83
2024-01-04T19:06:36.256Z,6.96
2024-01-04T19:11:24.603Z,7.31
2024-01-04T19:16:12.177Z,7.17
2024-01-04T19:20:59.643Z,7.18
2024-01-04T19:25:49.632Z,6.99
2024-01-04T19:30:37.327Z,6.70
2024-01-04T19:35:24.561Z,7.22
2024-01-04T19:40:13.496Z,6.72
2024-01-04T19:45:03.897Z,7.20
2024-01-04T19:49:52.488Z,6.60
2024-01-04T19:54:39.826Z,6.71
2024-01-04T19:59:27.176Z,7.20
2024-01-04T20:04:17.333Z,6.26
2024-01-04T20:09:04.839Z,6.39
2024-01-04T20:13:52.339Z,6.96
2024-01-04T20:18:39.891Z,7.00
2024-01-04T20:29:05.833Z,7.13
2024-01-04T20:33:53.654Z,6.86
2024-01-04T20:38:41.130Z,7.41
2024-01-04T20:43:28.840Z,7.17
2024-01-04T20:48:20.705Z,6.19
2024-01-04T21:36:22.647Z,7.07
2024-01-04T21:41:12.575Z,6.72
2024-01-04T21:46:17.168Z,6.70
2024-01-04T21:51:07.216Z,6.75
2024-01-04T21:55:57.479Z,7.04
2024-01-04T22:00:45.049Z,6.75
2024-01-04T22:05:32.501Z,7.22
2024-01-04T22:10:25.767Z,7.36
2024-01-04T22:15:19.106Z,7.37
2024-01-04T22:20:08.182Z,7.17
2024-01-04T22:24:58.528Z,7.04
2024-01-04T22:29:51.636Z,6.49
2024-01-04T22:34:45.170Z,7.37
2024-01-04T22:39:33.163Z,6.67
2024-01-04T22:44:22.372Z,7.03
2024-01-04T22:49:10.467Z,6.77
2024-01-04T22:54:01.398Z,7.13
2024-01-04T22:58:49.360Z,6.77
2024-01-04T23:03:39.984Z,6.82
2024-01-04T23:08:31.101Z,6.87
2024-01-04T23:13:33.133Z,6.61
2024-01-04T23:18:21.869Z,6.95
2024-01-04T23:23:13.542Z,6.62
2024-01-04T23:28:04.887Z,7.50
2024-01-04T23:32:57.416Z,6.85
2024-01-04T23:37:48.222Z,6.38
2024-01-04T23:42:36.109Z,7.39
2024-01-04T23:47:31.549Z,6.77
2024-01-04T23:52:22.230Z,7.02
2024-01-04T23:57:11.131Z,7.42
